Time;durP1;ratioP1;P1;durP2;ratioP2;P2;SDS_P1;SDS_P2;PMS_P1;PMS_P2;Temp;Humidity;BMP_temperature;BMP_pressure;BME280_temperature;BME280_humidity;BME280_pressure;Samples;Min_cycle;Max_cycle;Signal;HPM_P1;HPM_P2
2023/01/21 00:01:21;;;;;;;46.70;23.98;;;;;;;;;;5098946;28;20470;-72
2023/01/21 00:03:48;;;;;;;58.72;26.58;;;;;;;;;;5094133;28;20035;-72
2023/01/21 00:06:14;;;;;;;51.53;24.50;;;;;;;;;;5090894;27;20089;-72
2023/01/21 00:08:40;;;;;;;54.15;26.75;;;;;;;;;;5095487;28;20047;-72
2023/01/21 00:11:10;;;;;;;50.97;23.95;;;;;;;;;;5096674;28;21221;-72
2023/01/21 00:13:36;;;;;;;52.35;27.40;;;;;;;;;;5091279;28;20048;-72
2023/01/21 00:16:04;;;;;;;56.53;26.98;;;;;;;;;;5100772;28;20497;-71
2023/01/21 00:18:31;;;;;;;50.13;25.17;;;;;;;;;;5095499;28;20683;-72
2023/01/21 00:20:57;;;;;;;55.35;27.73;;;;;;;;;;5097563;28;20043;-71
2023/01/21 00:23:23;;;;;;;59.25;26.70;;;;;;;;;;5098363;28;20044;-72
2023/01/21 00:25:49;;;;;;;56.17;26.33;;;;;;;;;;5096447;28;20088;-72
2023/01/21 00:28:15;;;;;;;50.75;23.95;;;;;;;;;;5090814;28;20483;-71
2023/01/21 00:30:42;;;;;;;46.95;23.02;;;;;;;;;;5097517;28;20338;-72
2023/01/21 00:33:08;;;;;;;56.15;26.27;;;;;;;;;;5091983;28;20043;-72
2023/01/21 00:35:34;;;;;;;48.50;22.13;;;;;;;;;;5097277;28;20040;-72
2023/01/21 00:38:00;;;;;;;56.53;26.23;;;;;;;;;;5096988;28;20039;-72
2023/01/21 00:40:26;;;;;;;44.70;23.27;;;;;;;;;;5095699;28;20455;-72
2023/01/21 00:42:52;;;;;;;54.45;26.05;;;;;;;;;;5091854;28;20403;-72
2023/01/21 00:45:18;;;;;;;56.63;25.55;;;;;;;;;;5095508;28;20051;-72
2023/01/21 00:47:45;;;;;;;50.20;23.95;;;;;;;;;;5097689;28;20040;-71
2023/01/21 00:50:11;;;;;;;50.50;24.45;;;;;;;;;;5097457;28;20048;-72
2023/01/21 00:52:37;;;;;;;53.25;25.85;;;;;;;;;;5099224;28;20442;-72
2023/01/21 00:55:04;;;;;;;53.35;25.33;;;;;;;;;;5096112;28;20047;-71
2023/01/21 00:57:30;;;;;;;59.20;25.83;;;;;;;;;;5089247;28;20098;-72
2023/01/21 00:59:56;;;;;;;58.30;26.63;;;;;;;;;;5090812;28;20185;-72
2023/01/21 01:02:22;;;;;;;58.47;28.55;;;;;;;;;;5097670;28;20047;-71
2023/01/21 01:04:48;;;;;;;57.75;28.23;;;;;;;;;;5102172;27;20066;-72
2023/01/21 01:07:15;;;;;;;57.70;27.85;;;;;;;;;;5105172;27;21692;-72
2023/01/21 01:09:41;;;;;;;59.35;27.55;;;;;;;;;;5102844;27;20039;-72
2023/01/21 01:12:07;;;;;;;63.10;29.42;;;;;;;;;;5102252;27;20039;-72
2023/01/21 01:14:33;;;;;;;53.53;25.00;;;;;;;;;;5104062;27;20040;-72
2023/01/21 01:16:59;;;;;;;56.63;26.10;;;;;;;;;;5100800;27;20039;-72
2023/01/21 01:19:25;;;;;;;56.92;26.27;;;;;;;;;;5104166;27;20047;-71
2023/01/21 01:21:51;;;;;;;53.13;24.98;;;;;;;;;;5104125;28;20114;-72
2023/01/21 01:24:18;;;;;;;58.75;25.70;;;;;;;;;;5102919;27;20132;-72
2023/01/21 01:26:44;;;;;;;53.65;25.27;;;;;;;;;;5102342;27;20047;-72
2023/01/21 01:29:12;;;;;;;51.78;24.88;;;;;;;;;;5101185;27;20040;-72
2023/01/21 01:31:38;;;;;;;49.42;24.13;;;;;;;;;;5092873;27;20416;-72
2023/01/21 01:34:04;;;;;;;56.97;26.98;;;;;;;;;;5103690;28;20055;-72
2023/01/21 01:36:30;;;;;;;54.55;26.40;;;;;;;;;;5103935;27;20501;-72
2023/01/21 01:38:57;;;;;;;57.40;26.55;;;;;;;;;;5102421;27;20040;-71
2023/01/21 01:41:26;;;;;;;54.33;27.10;;;;;;;;;;5105280;27;20059;-72
2023/01/21 01:43:56;;;;;;;56.80;28.38;;;;;;;;;;5106862;27;20075;-72
2023/01/21 01:46:23;;;;;;;61.53;27.42;;;;;;;;;;5108173;27;20084;-72
2023/01/21 01:48:52;;;;;;;64.65;28.52;;;;;;;;;;5106600;27;20047;-71
2023/01/21 01:51:21;;;;;;;64.97;27.90;;;;;;;;;;5101488;27;20071;-72
2023/01/21 01:53:49;;;;;;;61.05;28.63;;;;;;;;;;5102911;27;20226;-71
2023/01/21 01:56:15;;;;;;;68.07;31.50;;;;;;;;;;5104231;27;20050;-72
2023/01/21 01:58:42;;;;;;;67.55;30.52;;;;;;;;;;5103135;27;20130;-71
2023/01/21 02:01:08;;;;;;;67.70;30.70;;;;;;;;;;5106020;27;20156;-72
2023/01/21 02:03:43;;;;;;;64.57;28.58;;;;;;;;;;5103478;27;20057;-71
2023/01/21 02:06:11;;;;;;;66.60;29.85;;;;;;;;;;5100785;27;20483;-72
2023/01/21 02:08:37;;;;;;;61.83;28.45;;;;;;;;;;5100004;28;20047;-71
2023/01/21 02:11:09;;;;;;;60.10;28.35;;;;;;;;;;5099363;28;20150;-72
2023/01/21 02:13:35;;;;;;;60.38;28.00;;;;;;;;;;5104483;27;20072;-72
2023/01/21 02:16:17;;;;;;;57.42;25.45;;;;;;;;;;5100683;27;20043;-72
2023/01/21 02:18:49;;;;;;;48.95;22.63;;;;;;;;;;5100164;28;20448;-72
2023/01/21 02:21:26;;;;;;;49.22;23.23;;;;;;;;;;5101890;28;20039;-72
2023/01/21 02:24:11;;;;;;;49.75;23.42;;;;;;;;;;5100010;28;20064;-72
2023/01/21 02:26:48;;;;;;;48.45;23.33;;;;;;;;;;5094156;28;20503;-72
2023/01/21 02:29:33;;;;;;;49.78;23.58;;;;;;;;;;5097978;28;20051;-72
2023/01/21 02:32:08;;;;;;;57.08;25.90;;;;;;;;;;5098689;28;20042;-72
2023/01/21 02:34:34;;;;;;;55.55;24.55;;;;;;;;;;5091304;28;20059;-72
2023/01/21 02:37:05;;;;;;;51.97;24.00;;;;;;;;;;5096810;28;20043;-72
2023/01/21 02:39:31;;;;;;;48.10;21.90;;;;;;;;;;5097920;28;20035;-72
2023/01/21 02:42:06;;;;;;;51.05;24.73;;;;;;;;;;5100539;28;20204;-71
2023/01/21 02:44:41;;;;;;;49.00;24.17;;;;;;;;;;5100737;28;20043;-71
2023/01/21 02:47:11;;;;;;;48.17;22.52;;;;;;;;;;5097172;28;20032;-71
2023/01/21 02:49:50;;;;;;;46.90;22.50;;;;;;;;;;5098662;28;20440;-71
2023/01/21 02:52:17;;;;;;;61.75;27.40;;;;;;;;;;5091833;28;20054;-71
2023/01/21 02:54:50;;;;;;;43.40;20.83;;;;;;;;;;5098695;28;20113;-70
2023/01/21 02:57:19;;;;;;;37.50;19.00;;;;;;;;;;5093868;28;21596;-71
2023/01/21 02:59:47;;;;;;;39.28;19.42;;;;;;;;;;5098372;28;20060;-70
2023/01/21 03:02:40;;;;;;;44.45;20.20;;;;;;;;;;5097769;27;20059;-70
2023/01/21 03:05:09;;;;;;;47.92;22.60;;;;;;;;;;5096110;27;20051;-71
2023/01/21 03:07:41;;;;;;;45.30;21.30;;;;;;;;;;5100701;27;20047;-71
2023/01/21 03:10:07;;;;;;;52.97;25.33;;;;;;;;;;5102307;28;20113;-70
2023/01/21 03:12:46;;;;;;;55.97;24.88;;;;;;;;;;5098983;28;20428;-71
2023/01/21 03:18:17;;;;;;;57.85;25.50;;;;;;;;;;5098688;28;21601;-70
2023/01/21 03:20:45;;;;;;;54.42;25.60;;;;;;;;;;5098699;28;20039;-70
2023/01/21 03:23:14;;;;;;;60.53;27.80;;;;;;;;;;5099839;28;20039;-70
2023/01/21 03:25:41;;;;;;;58.03;25.33;;;;;;;;;;5098095;28;20040;-71
2023/01/21 03:28:10;;;;;;;51.00;24.80;;;;;;;;;;5097534;28;20700;-71
2023/01/21 03:30:40;;;;;;;52.17;23.70;;;;;;;;;;5098277;28;20038;-71
2023/01/21 03:33:07;;;;;;;44.63;22.23;;;;;;;;;;5099537;28;20080;-71
2023/01/21 03:35:36;;;;;;;40.90;20.10;;;;;;;;;;5098375;28;20142;-71
2023/01/21 03:38:03;;;;;;;45.67;20.90;;;;;;;;;;5096605;28;20044;-71
2023/01/21 03:40:32;;;;;;;43.25;21.55;;;;;;;;;;5098325;28;20036;-71
2023/01/21 03:42:58;;;;;;;45.08;22.88;;;;;;;;;;5097567;28;20056;-71
2023/01/21 03:45:31;;;;;;;52.40;22.40;;;;;;;;;;5099179;28;20332;-71
2023/01/21 03:47:58;;;;;;;60.42;25.48;;;;;;;;;;5099312;28;20716;-71
2023/01/21 03:50:27;;;;;;;54.83;25.60;;;;;;;;;;5097629;28;21498;-71
2023/01/21 03:52:53;;;;;;;55.58;24.65;;;;;;;;;;5086858;28;20055;-71
2023/01/21 03:55:19;;;;;;;55.90;25.75;;;;;;;;;;5095616;28;20442;-71
2023/01/21 03:57:45;;;;;;;63.92;27.38;;;;;;;;;;5097821;28;20043;-71
2023/01/21 04:00:12;;;;;;;63.47;27.40;;;;;;;;;;5097894;28;20056;-71
2023/01/21 04:02:38;;;;;;;57.33;26.75;;;;;;;;;;5097286;28;20044;-71
2023/01/21 04:05:05;;;;;;;60.13;26.98;;;;;;;;;;5097134;28;20075;-71
2023/01/21 04:07:31;;;;;;;60.17;25.27;;;;;;;;;;5091848;28;20047;-71
2023/01/21 04:09:57;;;;;;;56.20;27.20;;;;;;;;;;5092834;28;20043;-71
2023/01/21 04:12:23;;;;;;;59.58;27.85;;;;;;;;;;5092998;28;20048;-71
2023/01/21 04:14:50;;;;;;;61.90;27.63;;;;;;;;;;5100525;28;20192;-71
2023/01/21 04:17:16;;;;;;;60.40;27.98;;;;;;;;;;5098162;28;20047;-71
2023/01/21 04:19:42;;;;;;;59.90;26.83;;;;;;;;;;5096743;28;20046;-70
2023/01/21 04:22:08;;;;;;;55.75;26.27;;;;;;;;;;5090132;28;20039;-71
2023/01/21 04:24:34;;;;;;;52.20;25.23;;;;;;;;;;5098956;28;20035;-71
2023/01/21 04:27:00;;;;;;;56.97;26.30;;;;;;;;;;5097955;28;20052;-70
2023/01/21 04:29:26;;;;;;;59.75;26.00;;;;;;;;;;5097621;28;20051;-71
2023/01/21 04:31:53;;;;;;;61.72;29.65;;;;;;;;;;5096891;28;20139;-71
2023/01/21 04:34:19;;;;;;;64.68;30.05;;;;;;;;;;5090111;28;20108;-70
2023/01/21 04:36:45;;;;;;;58.85;27.98;;;;;;;;;;5097526;28;20059;-70
2023/01/21 04:39:11;;;;;;;54.85;25.88;;;;;;;;;;5091714;28;20479;-70
2023/01/21 04:41:38;;;;;;;48.65;24.83;;;;;;;;;;5096444;28;20044;-70
2023/01/21 04:44:04;;;;;;;54.60;25.65;;;;;;;;;;5097477;28;20058;-70
2023/01/21 04:46:30;;;;;;;54.08;25.33;;;;;;;;;;5096492;28;20487;-70
2023/01/21 04:48:56;;;;;;;58.70;27.85;;;;;;;;;;5098009;28;20402;-70
2023/01/21 04:51:22;;;;;;;58.15;26.90;;;;;;;;;;5098702;28;20368;-70
2023/01/21 04:53:48;;;;;;;67.70;29.58;;;;;;;;;;5095919;28;20376;-70
2023/01/21 04:56:14;;;;;;;57.13;26.50;;;;;;;;;;5079078;28;20036;-70
2023/01/21 04:58:41;;;;;;;70.00;31.50;;;;;;;;;;5096745;28;20119;-70
2023/01/21 05:01:07;;;;;;;72.72;32.15;;;;;;;;;;5095213;28;20051;-70
2023/01/21 05:03:33;;;;;;;77.45;33.40;;;;;;;;;;5098539;28;20118;-71
2023/01/21 05:05:59;;;;;;;79.07;34.45;;;;;;;;;;5083663;28;20051;-70
2023/01/21 05:08:25;;;;;;;78.20;33.80;;;;;;;;;;5098067;28;20036;-70
2023/01/21 05:10:51;;;;;;;85.72;35.50;;;;;;;;;;5098373;28;20040;-70
2023/01/21 05:13:17;;;;;;;81.30;34.38;;;;;;;;;;5100852;28;20476;-71
2023/01/21 05:15:44;;;;;;;81.90;35.78;;;;;;;;;;5084521;28;20047;-70
2023/01/21 05:18:10;;;;;;;79.88;35.05;;;;;;;;;;5101996;28;20039;-71
2023/01/21 05:20:36;;;;;;;91.57;35.42;;;;;;;;;;5101022;28;20067;-71
2023/01/21 05:23:02;;;;;;;93.28;36.03;;;;;;;;;;5100645;28;20042;-71
2023/01/21 05:25:28;;;;;;;87.88;36.78;;;;;;;;;;5101630;28;20900;-71
2023/01/21 05:27:55;;;;;;;88.28;35.88;;;;;;;;;;5080315;28;20092;-71
2023/01/21 05:30:21;;;;;;;95.00;37.15;;;;;;;;;;5101356;28;20043;-71
2023/01/21 05:32:49;;;;;;;83.78;35.97;;;;;;;;;;5102469;28;20048;-71
2023/01/21 05:35:17;;;;;;;85.53;36.05;;;;;;;;;;5092645;28;20160;-71
2023/01/21 05:37:44;;;;;;;78.13;31.98;;;;;;;;;;5065179;28;20040;-70
2023/01/21 05:40:11;;;;;;;80.60;33.22;;;;;;;;;;5099542;28;20043;-70
2023/01/21 05:42:37;;;;;;;78.63;34.92;;;;;;;;;;5099483;28;20521;-70
2023/01/21 05:45:03;;;;;;;95.47;36.03;;;;;;;;;;5101113;28;20549;-72
2023/01/21 05:47:29;;;;;;;90.35;34.00;;;;;;;;;;5098947;28;20036;-72
2023/01/21 05:49:56;;;;;;;86.25;35.25;;;;;;;;;;5096912;27;20150;-71
2023/01/21 05:52:22;;;;;;;86.05;33.55;;;;;;;;;;5104029;27;20070;-71
2023/01/21 05:54:48;;;;;;;83.82;34.05;;;;;;;;;;5101685;27;20063;-70
2023/01/21 05:57:14;;;;;;;74.32;31.17;;;;;;;;;;5101321;28;20402;-70
2023/01/21 05:59:40;;;;;;;86.80;32.78;;;;;;;;;;5094719;27;20467;-70
2023/01/21 06:02:06;;;;;;;85.72;33.67;;;;;;;;;;5095274;27;20466;-71
2023/01/21 06:04:32;;;;;;;85.05;33.47;;;;;;;;;;5101577;27;20039;-71
2023/01/21 06:06:59;;;;;;;82.18;33.67;;;;;;;;;;5103298;27;20036;-71
2023/01/21 06:09:25;;;;;;;87.05;33.20;;;;;;;;;;5101943;27;20050;-71
2023/01/21 06:11:51;;;;;;;93.68;34.92;;;;;;;;;;5096602;28;20119;-71
2023/01/21 06:14:17;;;;;;;87.07;35.25;;;;;;;;;;5105081;28;20042;-71
2023/01/21 06:16:43;;;;;;;86.82;34.90;;;;;;;;;;5104764;28;20047;-72
2023/01/21 06:19:09;;;;;;;83.63;34.90;;;;;;;;;;5102583;27;20112;-71
2023/01/21 06:21:36;;;;;;;84.53;34.72;;;;;;;;;;5095686;28;20978;-72
2023/01/21 06:24:02;;;;;;;81.43;34.92;;;;;;;;;;5103439;28;20040;-72
2023/01/21 06:26:28;;;;;;;80.65;34.17;;;;;;;;;;5103165;28;20051;-72
2023/01/21 06:28:56;;;;;;;76.28;32.67;;;;;;;;;;5104913;27;20048;-72
2023/01/21 06:31:22;;;;;;;74.00;31.67;;;;;;;;;;5105014;28;20043;-71
2023/01/21 06:33:48;;;;;;;79.82;33.33;;;;;;;;;;5103714;28;20251;-72
2023/01/21 06:36:14;;;;;;;74.25;33.60;;;;;;;;;;5105003;28;20028;-72
2023/01/21 06:38:40;;;;;;;76.97;32.70;;;;;;;;;;5105562;27;20062;-71
2023/01/21 06:41:07;;;;;;;76.85;31.67;;;;;;;;;;5104054;28;20027;-71
2023/01/21 06:43:33;;;;;;;90.25;34.60;;;;;;;;;;5092613;28;20055;-71
2023/01/21 06:45:59;;;;;;;75.72;31.73;;;;;;;;;;5087932;28;20043;-71
2023/01/21 06:48:25;;;;;;;72.60;31.73;;;;;;;;;;5085045;28;20040;-73
2023/01/21 06:50:51;;;;;;;69.20;32.55;;;;;;;;;;5067813;28;20052;-72
2023/01/21 06:53:17;;;;;;;78.13;32.03;;;;;;;;;;5086011;28;21579;-72
2023/01/21 06:55:46;;;;;;;80.93;32.53;;;;;;;;;;5086984;28;20122;-72
2023/01/21 06:58:12;;;;;;;67.40;30.83;;;;;;;;;;5089479;28;20027;-71
2023/01/21 07:00:38;;;;;;;73.47;32.15;;;;;;;;;;5091959;28;20055;-72
2023/01/21 07:03:05;;;;;;;73.57;31.15;;;;;;;;;;5088972;28;20532;-72
2023/01/21 07:05:31;;;;;;;78.18;33.05;;;;;;;;;;5090235;28;20077;-72
2023/01/21 07:07:57;;;;;;;72.22;33.25;;;;;;;;;;5085383;28;20101;-73
2023/01/21 07:10:24;;;;;;;79.97;34.42;;;;;;;;;;5083680;28;20504;-73
2023/01/21 07:12:50;;;;;;;76.80;34.10;;;;;;;;;;5083174;28;20135;-73
2023/01/21 07:15:16;;;;;;;78.93;33.00;;;;;;;;;;5063686;28;20137;-73
2023/01/21 07:17:43;;;;;;;80.28;33.25;;;;;;;;;;5084958;28;20043;-72
2023/01/21 07:20:11;;;;;;;82.18;32.20;;;;;;;;;;5065606;28;20083;-71
2023/01/21 07:22:37;;;;;;;80.43;34.15;;;;;;;;;;5065181;28;20062;-73
2023/01/21 07:25:04;;;;;;;78.32;32.35;;;;;;;;;;5082898;28;20047;-73
2023/01/21 07:27:30;;;;;;;74.50;30.90;;;;;;;;;;5066446;28;20044;-73
2023/01/21 07:29:56;;;;;;;83.45;34.35;;;;;;;;;;5083831;28;20126;-74
2023/01/21 07:32:22;;;;;;;75.07;31.35;;;;;;;;;;5065877;28;20394;-72
2023/01/21 07:34:48;;;;;;;76.97;32.55;;;;;;;;;;5064935;28;20070;-73
2023/01/21 07:37:15;;;;;;;80.03;31.60;;;;;;;;;;5083655;28;20047;-73
2023/01/21 07:39:41;;;;;;;78.93;33.33;;;;;;;;;;5083715;28;20737;-73
2023/01/21 07:42:08;;;;;;;72.85;31.17;;;;;;;;;;5069429;28;20429;-73
2023/01/21 07:44:34;;;;;;;79.20;33.70;;;;;;;;;;5103117;27;20050;-72
2023/01/21 07:47:00;;;;;;;69.68;31.00;;;;;;;;;;5105031;28;20040;-72
2023/01/21 07:49:26;;;;;;;82.55;33.40;;;;;;;;;;5101273;28;20044;-72
2023/01/21 07:51:56;;;;;;;71.90;32.88;;;;;;;;;;5101960;28;20043;-73
2023/01/21 07:54:22;;;;;;;69.10;31.55;;;;;;;;;;5103730;28;22197;-73
2023/01/21 07:56:49;;;;;;;65.22;30.52;;;;;;;;;;5106215;28;20044;-73
2023/01/21 07:59:15;;;;;;;78.13;32.10;;;;;;;;;;5108298;28;20074;-73
2023/01/21 08:01:42;;;;;;;77.05;31.58;;;;;;;;;;5107276;28;20036;-73
2023/01/21 08:04:08;;;;;;;70.95;30.77;;;;;;;;;;5104523;28;20130;-73
2023/01/21 08:06:36;;;;;;;73.35;32.38;;;;;;;;;;5095152;28;20052;-73
2023/01/21 08:09:03;;;;;;;84.35;33.58;;;;;;;;;;5106160;28;20129;-73
2023/01/21 08:11:29;;;;;;;80.57;32.58;;;;;;;;;;5100460;28;20043;-74
2023/01/21 08:13:55;;;;;;;77.60;34.28;;;;;;;;;;5106732;28;20075;-73
2023/01/21 08:16:21;;;;;;;70.60;31.77;;;;;;;;;;5100743;28;20036;-74
2023/01/21 08:18:48;;;;;;;78.53;31.85;;;;;;;;;;5100569;28;20068;-70
2023/01/21 08:21:14;;;;;;;71.55;31.80;;;;;;;;;;5102544;28;20487;-70
2023/01/21 08:23:40;;;;;;;78.90;34.13;;;;;;;;;;5091747;28;20122;-69
2023/01/21 08:26:06;;;;;;;74.82;32.83;;;;;;;;;;5103172;28;20735;-69
2023/01/21 08:28:33;;;;;;;71.68;31.95;;;;;;;;;;5102557;28;20043;-69
2023/01/21 08:31:03;;;;;;;72.32;32.00;;;;;;;;;;5102775;28;20039;-69
2023/01/21 08:33:30;;;;;;;81.97;34.08;;;;;;;;;;5102463;28;20345;-69
2023/01/21 08:36:00;;;;;;;78.88;33.90;;;;;;;;;;5093860;28;20403;-69
2023/01/21 08:38:26;;;;;;;84.30;34.22;;;;;;;;;;5101967;28;20067;-70
2023/01/21 08:40:52;;;;;;;75.90;33.33;;;;;;;;;;5091345;28;20625;-73
2023/01/21 08:43:18;;;;;;;76.82;34.40;;;;;;;;;;5102358;28;20128;-74
2023/01/21 08:45:44;;;;;;;82.60;32.83;;;;;;;;;;5103401;28;20051;-73
2023/01/21 08:48:11;;;;;;;87.63;36.97;;;;;;;;;;5106134;28;20039;-73
2023/01/21 08:50:37;;;;;;;82.93;34.80;;;;;;;;;;5104929;27;20047;-73
2023/01/21 08:53:03;;;;;;;79.75;33.22;;;;;;;;;;5077853;28;21379;-73
2023/01/21 08:55:29;;;;;;;84.07;34.17;;;;;;;;;;5099676;28;20534;-73
2023/01/21 08:57:57;;;;;;;86.97;36.10;;;;;;;;;;5094533;28;20394;-73
2023/01/21 09:00:23;;;;;;;85.78;36.25;;;;;;;;;;5101340;28;20130;-73
2023/01/21 09:02:50;;;;;;;87.75;36.55;;;;;;;;;;5101740;28;20043;-73
2023/01/21 09:05:16;;;;;;;82.38;36.65;;;;;;;;;;5101529;28;20562;-73
2023/01/21 09:07:43;;;;;;;83.00;36.13;;;;;;;;;;5100667;28;20686;-73
2023/01/21 09:10:09;;;;;;;83.72;35.85;;;;;;;;;;5088719;28;20120;-73
2023/01/21 09:12:37;;;;;;;76.88;35.22;;;;;;;;;;5102117;28;20039;-73
2023/01/21 09:15:03;;;;;;;76.85;35.22;;;;;;;;;;5100423;28;20472;-73
2023/01/21 09:17:30;;;;;;;78.82;36.13;;;;;;;;;;5101264;28;20439;-73
2023/01/21 09:19:56;;;;;;;74.47;33.75;;;;;;;;;;5099324;28;20600;-74
2023/01/21 09:22:22;;;;;;;76.47;35.72;;;;;;;;;;5100324;28;20068;-72
2023/01/21 09:24:48;;;;;;;81.68;37.88;;;;;;;;;;5094444;28;20052;-73
2023/01/21 09:27:14;;;;;;;73.72;33.15;;;;;;;;;;5105745;27;20483;-73
2023/01/21 09:29:40;;;;;;;78.10;36.95;;;;;;;;;;5102880;28;20730;-73
2023/01/21 09:32:07;;;;;;;77.45;35.83;;;;;;;;;;5109223;28;20105;-72
2023/01/21 09:34:33;;;;;;;85.00;36.45;;;;;;;;;;5105612;28;20139;-73
2023/01/21 09:37:00;;;;;;;80.68;36.15;;;;;;;;;;5096311;27;20047;-72
2023/01/21 09:39:26;;;;;;;80.93;35.65;;;;;;;;;;5109489;28;20051;-73
2023/01/21 09:41:53;;;;;;;77.55;36.03;;;;;;;;;;5106322;28;20071;-72
2023/01/21 09:44:20;;;;;;;68.93;35.22;;;;;;;;;;5082221;28;20052;-75
2023/01/21 09:47:02;;;;;;;77.88;36.67;;;;;;;;;;5076316;28;20032;-71
2023/01/21 09:49:30;;;;;;;68.13;34.38;;;;;;;;;;5097570;28;20043;-70
2023/01/21 09:52:01;;;;;;;66.50;33.03;;;;;;;;;;5074735;28;20071;-71
2023/01/21 09:54:29;;;;;;;66.55;33.33;;;;;;;;;;5089811;28;20050;-70
2023/01/21 09:57:00;;;;;;;70.72;34.55;;;;;;;;;;5070075;28;20036;-71
2023/01/21 09:59:40;;;;;;;65.65;32.53;;;;;;;;;;5084555;28;20432;-71
2023/01/21 10:02:14;;;;;;;72.85;33.83;;;;;;;;;;5089280;28;20040;-72
2023/01/21 10:04:45;;;;;;;72.78;34.30;;;;;;;;;;5087748;28;20048;-72
2023/01/21 10:07:16;;;;;;;68.97;33.90;;;;;;;;;;5087975;28;20412;-72
2023/01/21 10:09:55;;;;;;;77.57;34.42;;;;;;;;;;5088679;28;20470;-72
2023/01/21 10:12:22;;;;;;;75.32;34.90;;;;;;;;;;5099019;28;20043;-72
2023/01/21 10:15:01;;;;;;;74.65;34.20;;;;;;;;;;5095710;28;20123;-72
2023/01/21 10:17:27;;;;;;;69.10;32.90;;;;;;;;;;5072908;28;20044;-72
2023/01/21 10:19:57;;;;;;;63.90;29.48;;;;;;;;;;5069488;28;20048;-71
2023/01/21 10:22:26;;;;;;;61.08;28.95;;;;;;;;;;5066239;28;20051;-71
2023/01/21 10:24:55;;;;;;;56.53;27.95;;;;;;;;;;5087084;28;20036;-72
2023/01/21 10:27:22;;;;;;;62.55;30.02;;;;;;;;;;5092267;28;20032;-73
2023/01/21 10:29:50;;;;;;;58.97;29.17;;;;;;;;;;5088835;28;20051;-72
2023/01/21 10:32:19;;;;;;;62.28;31.52;;;;;;;;;;5085682;28;20114;-72
2023/01/21 10:34:50;;;;;;;63.95;30.00;;;;;;;;;;5067496;28;20086;-72
2023/01/21 10:37:29;;;;;;;63.92;31.00;;;;;;;;;;5066353;28;20047;-72
2023/01/21 10:39:56;;;;;;;55.60;28.35;;;;;;;;;;5085461;28;22372;-71
2023/01/21 10:42:29;;;;;;;56.58;28.15;;;;;;;;;;5071939;28;20055;-72
2023/01/21 10:44:59;;;;;;;54.55;22.27;;;;;;;;;;5103754;27;20044;-72
2023/01/21 10:47:30;;;;;;;52.05;26.60;;;;;;;;;;5103158;28;20047;-71
2023/01/21 10:50:03;;;;;;;47.38;25.40;;;;;;;;;;5091707;28;20135;-71
2023/01/21 10:52:36;;;;;;;47.93;26.47;;;;;;;;;;5093882;27;20040;-71
2023/01/21 10:55:19;;;;;;;49.42;25.83;;;;;;;;;;5101839;28;20046;-71
2023/01/21 10:57:52;;;;;;;45.47;23.60;;;;;;;;;;5096293;27;20138;-71
2023/01/21 11:00:21;;;;;;;44.15;22.50;;;;;;;;;;5101513;27;20154;-71
2023/01/21 11:02:51;;;;;;;36.88;18.77;;;;;;;;;;5101676;28;20038;-71
2023/01/21 11:05:18;;;;;;;37.67;18.73;;;;;;;;;;5101974;27;20032;-73
2023/01/21 11:07:45;;;;;;;31.10;17.33;;;;;;;;;;5100865;27;20048;-72
2023/01/21 11:10:15;;;;;;;40.08;18.15;;;;;;;;;;5101011;28;20044;-71
2023/01/21 11:12:41;;;;;;;33.78;18.25;;;;;;;;;;5104620;27;20470;-71
2023/01/21 11:15:12;;;;;;;35.70;19.98;;;;;;;;;;5102893;27;20052;-71
2023/01/21 11:17:40;;;;;;;34.85;20.95;;;;;;;;;;5103866;28;22082;-72
2023/01/21 11:20:17;;;;;;;39.30;20.45;;;;;;;;;;5098287;28;20139;-72
2023/01/21 11:22:45;;;;;;;41.38;20.45;;;;;;;;;;5103370;28;20043;-71
2023/01/21 11:25:25;;;;;;;35.38;18.20;;;;;;;;;;5107258;27;20119;-71
2023/01/21 11:27:51;;;;;;;33.05;20.00;;;;;;;;;;5103040;27;20039;-71
2023/01/21 11:30:32;;;;;;;34.33;19.33;;;;;;;;;;5103994;27;20051;-70
2023/01/21 11:33:13;;;;;;;31.83;18.00;;;;;;;;;;5099470;27;20058;-72
2023/01/21 11:35:39;;;;;;;28.50;16.63;;;;;;;;;;5092769;27;20054;-71
2023/01/21 11:38:06;;;;;;;27.08;14.73;;;;;;;;;;5100530;27;20048;-70
2023/01/21 11:40:32;;;;;;;25.77;15.68;;;;;;;;;;5103100;28;20043;-70
2023/01/21 11:42:58;;;;;;;27.40;15.43;;;;;;;;;;5102392;28;20047;-71
2023/01/21 11:45:27;;;;;;;25.08;16.38;;;;;;;;;;5094196;28;20103;-72
2023/01/21 11:47:53;;;;;;;24.17;13.70;;;;;;;;;;5102287;27;20050;-74
2023/01/21 11:50:28;;;;;;;24.08;13.75;;;;;;;;;;5103344;28;20057;-70
2023/01/21 11:53:07;;;;;;;20.50;13.23;;;;;;;;;;5104255;28;20036;-71
2023/01/21 11:55:42;;;;;;;18.50;12.00;;;;;;;;;;5092289;27;20555;-73
2023/01/21 11:58:18;;;;;;;17.30;11.90;;;;;;;;;;5105153;28;20063;-73
2023/01/21 12:00:45;;;;;;;16.30;10.18;;;;;;;;;;5090516;28;20148;-73
2023/01/21 12:03:15;;;;;;;14.27;9.90;;;;;;;;;;5101920;28;20566;-73
2023/01/21 12:05:42;;;;;;;13.45;8.80;;;;;;;;;;5105366;28;20040;-73
2023/01/21 12:08:20;;;;;;;11.88;7.82;;;;;;;;;;5105836;28;20050;-73
2023/01/21 12:10:46;;;;;;;11.90;8.10;;;;;;;;;;5102664;28;20035;-73
2023/01/21 12:13:34;;;;;;;11.38;8.00;;;;;;;;;;5106366;28;20070;-73
2023/01/21 12:16:15;;;;;;;13.00;8.65;;;;;;;;;;5105829;28;20048;-73
2023/01/21 12:18:50;;;;;;;15.38;8.13;;;;;;;;;;5105080;28;20188;-73
2023/01/21 12:21:35;;;;;;;14.30;8.32;;;;;;;;;;5106032;28;20634;-73
2023/01/21 12:24:13;;;;;;;15.02;8.43;;;;;;;;;;5103026;28;20376;-73
2023/01/21 12:26:44;;;;;;;12.18;8.35;;;;;;;;;;5104020;27;20065;-73
2023/01/21 12:29:10;;;;;;;13.48;8.25;;;;;;;;;;5096145;28;20134;-73
2023/01/21 12:31:42;;;;;;;11.50;7.78;;;;;;;;;;5094333;28;20060;-73
2023/01/21 12:34:30;;;;;;;13.13;8.02;;;;;;;;;;5102522;28;20352;-73
2023/01/21 12:37:00;;;;;;;12.48;7.20;;;;;;;;;;5105725;28;20043;-73
2023/01/21 12:39:33;;;;;;;13.85;8.88;;;;;;;;;;5089919;28;20065;-73
2023/01/21 12:42:03;;;;;;;12.73;8.60;;;;;;;;;;5106654;28;20054;-72
2023/01/21 12:44:39;;;;;;;14.18;8.98;;;;;;;;;;5105627;28;20497;-72
2023/01/21 12:47:11;;;;;;;14.23;8.85;;;;;;;;;;5105767;28;20058;-72
2023/01/21 12:49:53;;;;;;;11.90;7.28;;;;;;;;;;5101255;27;20043;-73
2023/01/21 12:52:29;;;;;;;15.40;7.97;;;;;;;;;;5104198;28;20110;-73
2023/01/21 12:55:04;;;;;;;15.48;10.15;;;;;;;;;;5094831;28;20121;-72
2023/01/21 12:57:37;;;;;;;11.70;7.95;;;;;;;;;;5096752;28;20062;-74
2023/01/21 13:00:09;;;;;;;10.43;6.90;;;;;;;;;;5092286;28;20047;-73
2023/01/21 13:02:55;;;;;;;13.40;7.45;;;;;;;;;;5104635;28;20317;-73
2023/01/21 13:05:25;;;;;;;12.73;7.93;;;;;;;;;;5105066;28;20126;-73
2023/01/21 13:08:10;;;;;;;13.00;8.27;;;;;;;;;;5105291;28;20570;-73
2023/01/21 13:10:39;;;;;;;13.15;8.07;;;;;;;;;;5105516;28;20036;-73
2023/01/21 13:13:13;;;;;;;11.38;8.05;;;;;;;;;;5104283;28;20155;-73
2023/01/21 13:15:41;;;;;;;10.68;7.85;;;;;;;;;;5102801;28;20040;-73
2023/01/21 13:18:11;;;;;;;11.23;7.38;;;;;;;;;;5104704;28;20100;-73
2023/01/21 13:20:39;;;;;;;11.00;7.18;;;;;;;;;;5104462;28;20077;-74
2023/01/21 13:23:17;;;;;;;12.80;7.25;;;;;;;;;;5104821;28;20085;-73
2023/01/21 13:25:48;;;;;;;10.05;6.80;;;;;;;;;;5089378;28;20036;-74
2023/01/21 13:28:19;;;;;;;10.05;6.22;;;;;;;;;;5091354;28;20043;-73
2023/01/21 13:30:52;;;;;;;11.38;6.97;;;;;;;;;;5102695;28;20036;-73
2023/01/21 13:33:27;;;;;;;10.63;7.10;;;;;;;;;;5089824;28;20044;-73
2023/01/21 13:35:54;;;;;;;10.25;7.60;;;;;;;;;;5102268;28;20039;-74
2023/01/21 13:38:26;;;;;;;10.60;6.72;;;;;;;;;;5105826;28;20043;-73
2023/01/21 13:40:58;;;;;;;11.88;6.68;;;;;;;;;;5105172;28;20179;-73
2023/01/21 13:43:38;;;;;;;10.20;6.72;;;;;;;;;;5100195;28;20040;-73
2023/01/21 13:46:10;;;;;;;10.85;7.15;;;;;;;;;;5094253;28;20564;-72
2023/01/21 13:48:36;;;;;;;13.20;7.07;;;;;;;;;;5093279;28;21447;-72
2023/01/21 13:51:15;;;;;;;9.50;6.95;;;;;;;;;;5105020;28;20042;-73
2023/01/21 13:53:47;;;;;;;11.20;7.43;;;;;;;;;;5103834;28;20371;-73
2023/01/21 13:56:13;;;;;;;11.52;8.60;;;;;;;;;;5103983;28;20047;-74
2023/01/21 13:58:39;;;;;;;11.30;8.25;;;;;;;;;;5105795;28;20130;-73
2023/01/21 14:01:07;;;;;;;11.68;7.28;;;;;;;;;;5103418;28;20177;-73
2023/01/21 14:03:33;;;;;;;11.25;7.57;;;;;;;;;;5101307;28;20307;-73
2023/01/21 14:06:14;;;;;;;11.27;7.63;;;;;;;;;;5104699;28;20077;-73
2023/01/21 14:08:44;;;;;;;12.82;7.97;;;;;;;;;;5090416;28;20158;-72
2023/01/21 14:11:20;;;;;;;11.98;8.02;;;;;;;;;;5105289;28;20083;-73
2023/01/21 14:13:59;;;;;;;11.23;7.07;;;;;;;;;;5100468;28;20051;-73
2023/01/21 14:16:36;;;;;;;12.10;7.50;;;;;;;;;;5108331;28;20083;-72
2023/01/21 14:19:22;;;;;;;11.05;8.13;;;;;;;;;;5098872;28;20051;-73
2023/01/21 14:21:55;;;;;;;10.63;7.22;;;;;;;;;;5106915;28;20045;-73
2023/01/21 14:24:40;;;;;;;10.20;7.00;;;;;;;;;;5106749;28;20441;-73
2023/01/21 14:27:19;;;;;;;10.48;7.00;;;;;;;;;;5106346;28;20547;-72
2023/01/21 14:29:50;;;;;;;11.88;7.80;;;;;;;;;;5096814;28;20123;-73
2023/01/21 14:32:34;;;;;;;12.00;8.02;;;;;;;;;;5106773;28;20057;-72